Terminal Aerodrome Forecast
Issued by NWS

Home | Current Version | Previous Version | Text Only | Print | Product List | Glossary On
Versions: 1 2 3 4 5 6 7 8 9 10 11 12 13
000
FTUS44 KBMX 262332
TAFMGM
TAF
KMGM 262332Z 2700/2724 15012KT P6SM SCT040
     FM270700 15014G24KT P6SM BKN025
     FM270900 15014G24KT P6SM OVC015
     FM271000 18012G20KT 4SM TSRA BKN008 BKN015CB OVC100
     FM271500 23012KT P6SM OVC015=

USA.gov is the U.S. government's official web portal to all federal, state and local government web resources and services.